Time;durP1;ratioP1;P1;durP2;ratioP2;P2;SDS_P1;SDS_P2;PMS_P1;PMS_P2;Temp;Humidity;BMP_temperature;BMP_pressure;BME280_temperature;BME280_humidity;BME280_pressure;Samples;Min_cycle;Max_cycle;Signal;HPM_P1;HPM_P2
2023/11/22 00:00:39;;;;;;;5.13;3.05;;;;;;;-0.91;100.00;99159.47;6101678;19;20028;-75
2023/11/22 00:02:40;;;;;;;6.78;3.28;;;;;;;-0.98;100.00;99156.31;6103360;19;20577;-75
2023/11/22 00:04:40;;;;;;;4.57;3.08;;;;;;;-0.91;100.00;99162.19;6102644;19;20474;-74
2023/11/22 00:06:41;;;;;;;3.80;2.90;;;;;;;-0.92;100.00;99177.69;6101444;19;20002;-75
2023/11/22 00:08:41;;;;;;;8.85;4.10;;;;;;;-0.89;100.00;99179.84;6102840;19;20010;-74
2023/11/22 00:10:42;;;;;;;6.65;3.45;;;;;;;-0.89;100.00;99189.91;6103095;19;20074;-75
2023/11/22 00:12:42;;;;;;;5.35;3.08;;;;;;;-0.96;100.00;99179.38;6102781;19;20395;-75
2023/11/22 00:14:43;;;;;;;6.72;3.65;;;;;;;-0.93;100.00;99170.63;6101926;19;20544;-75
2023/11/22 00:16:43;;;;;;;5.38;2.92;;;;;;;-0.99;100.00;99163.66;6101867;19;20093;-74
2023/11/22 00:18:44;;;;;;;6.38;3.40;;;;;;;-0.98;100.00;99161.72;6100212;19;20030;-75
2023/11/22 00:20:47;;;;;;;5.10;3.20;;;;;;;-1.02;100.00;99172.34;6102188;19;20030;-75
2023/11/22 00:22:47;;;;;;;5.95;3.25;;;;;;;-1.08;100.00;99178.91;6103136;19;20382;-75
2023/11/22 00:24:50;;;;;;;5.40;3.33;;;;;;;-1.07;100.00;99171.59;6101679;19;20346;-74
2023/11/22 00:26:50;;;;;;;8.35;2.97;;;;;;;-1.17;100.00;99186.84;6098768;19;20003;-75
2023/11/22 00:28:53;;;;;;;7.45;3.55;;;;;;;-1.21;100.00;99174.94;6094525;19;20314;-75
2023/11/22 00:30:54;;;;;;;5.30;3.33;;;;;;;-1.19;100.00;99171.94;6102283;19;20438;-74
2023/11/22 00:32:54;;;;;;;7.25;3.65;;;;;;;-1.20;100.00;99182.00;6101638;19;20014;-75
2023/11/22 00:34:54;;;;;;;6.15;3.22;;;;;;;-1.23;100.00;99185.28;6101637;19;20003;-75
2023/11/22 00:36:55;;;;;;;5.72;3.15;;;;;;;-1.19;100.00;99182.81;6098868;19;20074;-74
2023/11/22 00:38:55;;;;;;;5.65;2.97;;;;;;;-1.20;100.00;99192.06;6101577;19;20450;-75
2023/11/22 00:40:56;;;;;;;6.28;3.05;;;;;;;-1.26;100.00;99196.69;6101931;19;20396;-74
2023/11/22 00:42:57;;;;;;;5.82;3.05;;;;;;;-1.28;100.00;99196.19;6101062;19;20433;-75
2023/11/22 00:44:58;;;;;;;6.05;3.40;;;;;;;-1.35;100.00;99195.69;6101909;19;20433;-75
2023/11/22 00:46:58;;;;;;;4.47;3.08;;;;;;;-1.37;100.00;99194.34;6099913;19;20014;-75
2023/11/22 00:48:59;;;;;;;5.72;3.50;;;;;;;-1.36;100.00;99198.69;6101099;19;20376;-74
2023/11/22 00:50:59;;;;;;;6.07;3.85;;;;;;;-1.37;100.00;99199.78;6101855;19;20007;-75
2023/11/22 00:52:59;;;;;;;4.60;2.80;;;;;;;-1.40;100.00;99203.88;6102361;19;20007;-74
2023/11/22 00:55:00;;;;;;;6.32;3.35;;;;;;;-1.29;100.00;99210.84;6100627;19;20017;-74
2023/11/22 00:57:00;;;;;;;6.05;3.53;;;;;;;-1.29;100.00;99213.56;6098379;19;20011;-74
2023/11/22 00:59:03;;;;;;;6.53;3.25;;;;;;;-1.36;100.00;99213.06;6100947;19;20329;-74
2023/11/22 01:01:05;;;;;;;7.30;3.65;;;;;;;-1.39;100.00;99226.41;6100992;19;20015;-75
2023/11/22 01:03:05;;;;;;;6.68;3.83;;;;;;;-1.43;100.00;99224.25;6101267;19;20318;-74
2023/11/22 01:05:10;;;;;;;6.10;3.28;;;;;;;-1.38;100.00;99238.88;6101727;19;20014;-75
2023/11/22 01:07:11;;;;;;;6.00;2.90;;;;;;;-1.37;100.00;99241.31;6098799;19;20010;-74
2023/11/22 01:09:13;;;;;;;9.20;3.60;;;;;;;-1.37;100.00;99249.47;6100499;19;20474;-75
2023/11/22 01:11:14;;;;;;;6.05;3.50;;;;;;;-1.35;100.00;99252.69;6100483;19;20014;-75
2023/11/22 01:13:14;;;;;;;7.47;4.03;;;;;;;-1.37;100.00;99254.06;6100265;19;20033;-75
2023/11/22 01:15:15;;;;;;;7.55;3.17;;;;;;;-1.38;100.00;99266.84;6101110;19;20025;-74
2023/11/22 01:17:15;;;;;;;7.85;3.97;;;;;;;-1.35;100.00;99271.69;6100123;19;20040;-74
2023/11/22 01:19:16;;;;;;;5.20;3.28;;;;;;;-1.38;100.00;99266.84;6098975;19;20033;-74
2023/11/22 01:21:16;;;;;;;6.38;3.40;;;;;;;-1.32;100.00;99262.19;6100979;19;20006;-75
2023/11/22 01:23:16;;;;;;;5.90;3.17;;;;;;;-1.31;100.00;99264.63;6099666;19;20006;-75
2023/11/22 01:25:16;;;;;;;5.55;3.63;;;;;;;-1.33;100.00;99271.41;6096789;19;20373;-75
2023/11/22 01:27:17;;;;;;;6.50;3.10;;;;;;;-1.37;100.00;99268.47;6095280;19;20006;-75
2023/11/22 01:29:17;;;;;;;6.55;3.38;;;;;;;-1.42;100.00;99257.63;6090885;19;20011;-74
2023/11/22 01:31:20;;;;;;;7.20;3.83;;;;;;;-1.42;100.00;99269.28;6091520;19;20010;-74
2023/11/22 01:33:24;;;;;;;8.10;4.05;;;;;;;-1.39;100.00;99267.13;6090526;19;20003;-74
2023/11/22 01:35:24;;;;;;;7.15;3.45;;;;;;;-1.45;100.00;99264.44;6090985;19;20409;-75
2023/11/22 01:37:25;;;;;;;8.40;4.38;;;;;;;-1.49;100.00;99257.13;6091031;19;20010;-75
2023/11/22 01:39:26;;;;;;;7.57;4.03;;;;;;;-1.50;100.00;99252.78;6090016;19;20275;-74
2023/11/22 01:41:26;;;;;;;8.43;3.63;;;;;;;-1.55;100.00;99263.69;6092080;19;20426;-74
2023/11/22 01:43:27;;;;;;;7.18;3.72;;;;;;;-1.62;100.00;99265.88;6091022;19;20361;-74
2023/11/22 01:45:27;;;;;;;6.43;3.70;;;;;;;-1.64;100.00;99276.22;6091617;19;20315;-75
2023/11/22 01:47:28;;;;;;;7.18;3.45;;;;;;;-1.70;100.00;99270.00;6090790;19;20010;-75
2023/11/22 01:49:29;;;;;;;9.50;4.07;;;;;;;-1.74;100.00;99268.91;6090398;19;20014;-74
2023/11/22 01:51:30;;;;;;;7.13;3.42;;;;;;;-1.79;100.00;99258.91;6091647;19;20635;-74
2023/11/22 01:53:32;;;;;;;5.65;3.35;;;;;;;-1.80;100.00;99276.28;6091525;19;20071;-74
2023/11/22 01:55:32;;;;;;;4.87;3.10;;;;;;;-1.84;100.00;99269.75;6090329;19;20441;-74
2023/11/22 01:57:34;;;;;;;4.35;3.10;;;;;;;-1.86;100.00;99263.00;6090794;19;20011;-75
2023/11/22 01:59:35;;;;;;;7.32;3.72;;;;;;;-1.91;100.00;99263.81;6091619;19;20013;-74
2023/11/22 02:01:35;;;;;;;6.88;4.30;;;;;;;-1.93;100.00;99263.28;6091468;19;20011;-74
2023/11/22 02:03:35;;;;;;;5.32;3.30;;;;;;;-1.95;100.00;99262.75;6090456;19;20067;-74
2023/11/22 02:05:41;;;;;;;6.22;3.50;;;;;;;-2.00;100.00;99260.06;6091441;19;20332;-74
2023/11/22 02:07:42;;;;;;;5.93;3.28;;;;;;;-2.02;100.00;99273.09;6089661;19;20363;-74
2023/11/22 02:09:42;;;;;;;6.38;3.58;;;;;;;-2.02;100.00;99282.03;6091336;19;20011;-74
2023/11/22 02:11:45;;;;;;;7.22;3.72;;;;;;;-1.97;100.00;99289.34;6091307;19;20010;-74
2023/11/22 02:13:46;;;;;;;7.57;3.72;;;;;;;-1.97;100.00;99283.94;6090698;19;20262;-74
2023/11/22 02:15:47;;;;;;;5.68;3.25;;;;;;;-1.96;100.00;99277.41;6090433;19;20002;-74
2023/11/22 02:17:47;;;;;;;9.00;4.30;;;;;;;-1.96;100.00;99280.13;6090248;19;20025;-74
2023/11/22 02:19:48;;;;;;;6.00;3.40;;;;;;;-1.93;100.00;99279.56;6091048;19;20006;-74
2023/11/22 02:21:48;;;;;;;6.05;3.88;;;;;;;-1.92;100.00;99275.75;6090596;19;20463;-74
2023/11/22 02:23:48;;;;;;;6.35;3.55;;;;;;;-1.90;100.00;99268.19;6090504;19;20107;-74
2023/11/22 02:25:49;;;;;;;8.40;3.88;;;;;;;-1.88;100.00;99273.31;6095523;19;20555;-74
2023/11/22 02:27:49;;;;;;;7.30;4.30;;;;;;;-1.91;100.00;99271.16;6091194;19;20012;-74
2023/11/22 02:29:50;;;;;;;8.70;4.22;;;;;;;-1.95;100.00;99272.81;6104596;19;20014;-74
2023/11/22 02:31:50;;;;;;;8.75;4.28;;;;;;;-1.98;100.00;99283.13;6104408;19;20011;-74
2023/11/22 02:33:50;;;;;;;7.07;3.72;;;;;;;-2.01;100.00;99296.41;6103970;19;20027;-74
2023/11/22 02:35:51;;;;;;;8.55;3.53;;;;;;;-2.04;100.00;99299.69;6103143;19;20014;-74
2023/11/22 02:37:51;;;;;;;6.35;4.20;;;;;;;-2.10;100.00;99295.34;6102477;19;20588;-74
2023/11/22 02:40:04;;;;;;;6.82;3.50;;;;;;;-2.12;100.00;99292.09;6104478;19;20006;-74
2023/11/22 02:42:04;;;;;;;7.00;3.85;;;;;;;-2.19;100.00;99305.13;6104072;19;20006;-74
2023/11/22 02:44:06;;;;;;;8.20;4.20;;;;;;;-2.23;100.00;99299.47;6103231;19;19991;-74
2023/11/22 02:46:08;;;;;;;10.23;5.43;;;;;;;-2.28;100.00;99296.75;6103558;19;20003;-74
2023/11/22 02:48:09;;;;;;;7.93;4.03;;;;;;;-2.31;100.00;99302.72;6103326;19;20494;-74
2023/11/22 02:50:09;;;;;;;9.18;4.72;;;;;;;-2.33;100.00;99302.97;6103990;19;19999;-75
2023/11/22 02:52:11;;;;;;;8.95;4.60;;;;;;;-2.34;100.00;99311.38;6103542;19;20003;-74
2023/11/22 02:54:12;;;;;;;9.00;3.95;;;;;;;-2.33;100.00;99313.81;6103841;19;20007;-74
2023/11/22 02:56:12;;;;;;;9.20;4.13;;;;;;;-2.35;100.00;99310.56;6104223;19;20014;-74
2023/11/22 02:58:12;;;;;;;8.85;4.03;;;;;;;-2.34;100.00;99311.38;6101569;19;19999;-75
2023/11/22 03:00:14;;;;;;;9.20;4.40;;;;;;;-2.32;100.00;99320.03;6104359;19;20007;-74
2023/11/22 03:02:17;;;;;;;7.90;4.37;;;;;;;-2.27;100.00;99337.13;6104272;19;20039;-74
2023/11/22 03:04:17;;;;;;;;;;;;;;;-2.25;100.00;99328.72;6102079;19;20017;-74
2023/11/22 03:06:17;;;;;;;5.97;3.63;;;;;;;-2.24;100.00;99329.53;6102695;19;20399;-74
2023/11/22 03:08:18;;;;;;;9.15;3.78;;;;;;;-2.26;100.00;99330.63;6103135;19;20007;-74
2023/11/22 03:10:18;;;;;;;6.93;3.33;;;;;;;-2.27;100.00;99325.47;6104095;19;20015;-74
2023/11/22 03:12:20;;;;;;;6.85;4.25;;;;;;;-2.26;100.00;99318.97;6103969;19;20011;-74
2023/11/22 03:14:21;;;;;;;6.85;3.58;;;;;;;-2.20;100.00;99331.44;6103515;19;20719;-74
2023/11/22 03:16:22;;;;;;;8.90;4.53;;;;;;;-2.16;100.00;99328.97;6103344;19;20011;-74
2023/11/22 03:18:22;;;;;;;7.93;4.72;;;;;;;-2.14;100.00;99334.97;6102771;19;20030;-74
2023/11/22 03:20:22;;;;;;;7.60;4.25;;;;;;;-2.17;100.00;99327.34;6103404;19;20031;-74
2023/11/22 03:22:27;;;;;;;8.00;4.03;;;;;;;-2.16;100.00;99339.81;6103738;19;20230;-74
2023/11/22 03:24:27;;;;;;;6.43;4.00;;;;;;;-2.13;100.00;99342.00;6103538;19;20018;-74
2023/11/22 03:26:28;;;;;;;10.20;4.57;;;;;;;-2.10;100.00;99336.84;6102251;19;20339;-75
2023/11/22 03:28:31;;;;;;;8.52;4.55;;;;;;;-2.08;100.00;99337.38;6102274;19;20580;-75
2023/11/22 03:30:31;;;;;;;8.55;4.82;;;;;;;-2.06;100.00;99334.41;6104832;19;20644;-75
2023/11/22 03:32:31;;;;;;;10.50;4.57;;;;;;;-2.06;100.00;99347.97;6104253;19;20047;-74
2023/11/22 03:34:32;;;;;;;5.88;3.95;;;;;;;-2.04;100.00;99346.59;6102096;19;20003;-75
2023/11/22 03:36:32;;;;;;;8.45;4.38;;;;;;;-2.03;100.00;99352.81;6101400;19;20277;-75
2023/11/22 03:38:33;;;;;;;7.68;4.53;;;;;;;-2.02;100.00;99360.69;6101239;19;20443;-75
2023/11/22 03:40:33;;;;;;;9.65;5.03;;;;;;;-1.99;100.00;99360.16;6102808;19;20002;-74
2023/11/22 03:42:36;;;;;;;7.78;4.45;;;;;;;-1.99;100.00;99368.28;6104358;19;20488;-75
2023/11/22 03:44:36;;;;;;;7.55;4.53;;;;;;;-1.93;100.00;99377.22;6102966;19;20002;-74
2023/11/22 03:46:40;;;;;;;6.80;4.30;;;;;;;-1.95;100.00;99367.72;6100265;19;20017;-75
2023/11/22 03:48:40;;;;;;;7.10;4.22;;;;;;;-1.94;100.00;99369.34;6103522;19;20057;-75
2023/11/22 03:50:40;;;;;;;6.93;4.03;;;;;;;-1.94;100.00;99370.16;6104866;19;20413;-74
2023/11/22 03:52:41;;;;;;;8.73;4.15;;;;;;;-1.91;100.00;99375.03;6104554;19;20013;-75
2023/11/22 03:54:41;;;;;;;8.00;4.57;;;;;;;-1.92;100.00;99381.53;6103629;19;20010;-75
2023/11/22 03:56:41;;;;;;;8.85;4.38;;;;;;;-1.94;100.00;99378.28;6102534;19;20106;-74
2023/11/22 03:58:42;;;;;;;9.38;4.32;;;;;;;-1.94;100.00;99383.72;6102986;19;20793;-75
2023/11/22 04:00:42;;;;;;;7.38;4.13;;;;;;;-1.96;100.00;99371.53;6103980;19;20006;-74
2023/11/22 04:02:43;;;;;;;7.90;4.55;;;;;;;-1.93;100.00;99377.22;6103507;19;20006;-75
2023/11/22 04:04:44;;;;;;;8.93;4.13;;;;;;;-1.90;100.00;99383.97;6102861;19;20065;-74
2023/11/22 04:06:45;;;;;;;10.65;4.53;;;;;;;-1.88;100.00;99379.09;6101975;19;20003;-75
2023/11/22 04:08:46;;;;;;;9.90;4.97;;;;;;;-1.88;100.00;99379.91;6103508;19;20070;-75
2023/11/22 04:10:47;;;;;;;8.63;4.90;;;;;;;-1.81;100.00;99385.06;6103986;19;20010;-75
2023/11/22 04:12:48;;;;;;;8.20;5.07;;;;;;;-1.81;100.00;99394.00;6104027;19;20022;-75
2023/11/22 04:14:51;;;;;;;7.53;4.55;;;;;;;-1.81;100.00;99385.06;6102395;19;20455;-75
2023/11/22 04:16:51;;;;;;;;;;;;;;;-1.74;100.00;99391.84;6101587;19;20035;-75
2023/11/22 04:18:51;;;;;;;7.90;4.10;;;;;;;-1.74;100.00;99385.56;6102542;19;19915;-74
2023/11/22 04:20:52;;;;;;;8.77;4.68;;;;;;;-1.73;100.00;99388.03;6103601;19;20026;-75
2023/11/22 04:22:53;;;;;;;7.38;4.75;;;;;;;-1.75;100.00;99384.75;6102525;19;20331;-75
2023/11/22 04:24:53;;;;;;;10.63;5.15;;;;;;;-1.76;100.00;99388.56;6102429;19;20009;-75
2023/11/22 04:26:53;;;;;;;12.18;4.55;;;;;;;-1.74;100.00;99386.41;6101320;19;20456;-75
2023/11/22 04:28:54;;;;;;;8.23;4.43;;;;;;;-1.73;100.00;99398.88;6100339;19;20439;-75
2023/11/22 04:30:54;;;;;;;8.75;4.38;;;;;;;-1.65;100.00;99397.50;6102754;19;20010;-75
2023/11/22 04:32:55;;;;;;;8.52;4.68;;;;;;;-1.72;100.00;99394.28;6101583;19;20007;-74
2023/11/22 04:34:55;;;;;;;7.97;4.22;;;;;;;-1.72;100.00;99389.66;6100558;19;20003;-75
2023/11/22 04:36:56;;;;;;;7.85;4.45;;;;;;;-1.68;100.00;99406.19;6099136;19;20051;-75
2023/11/22 04:38:56;;;;;;;7.30;4.18;;;;;;;-1.68;100.00;99405.38;6102154;19;20003;-75
2023/11/22 04:40:57;;;;;;;10.75;5.35;;;;;;;-1.71;100.00;99412.97;6102922;19;20011;-74
2023/11/22 04:42:57;;;;;;;9.43;5.28;;;;;;;-1.70;100.00;99409.19;6102744;19;20039;-75
2023/11/22 04:44:57;;;;;;;15.63;5.65;;;;;;;-1.72;100.00;99408.66;6101791;19;20051;-75
2023/11/22 04:47:01;;;;;;;8.07;4.78;;;;;;;-1.75;100.00;99414.59;6100040;19;20364;-74
2023/11/22 04:49:01;;;;;;;6.63;3.90;;;;;;;-1.71;100.00;99407.56;6099677;19;20361;-75
2023/11/22 04:51:01;;;;;;;9.18;4.72;;;;;;;-1.76;100.00;99406.75;6102218;19;20454;-75
2023/11/22 04:53:02;;;;;;;10.30;4.43;;;;;;;-1.70;100.00;99421.94;6101474;19;20755;-75
2023/11/22 04:55:04;;;;;;;8.90;4.50;;;;;;;-1.70;100.00;99428.16;6102485;19;20458;-74
2023/11/22 04:57:05;;;;;;;7.22;3.78;;;;;;;-1.73;100.00;99431.44;6098502;19;20003;-75
2023/11/22 04:59:05;;;;;;;8.82;4.55;;;;;;;-1.71;100.00;99428.44;6101560;19;20033;-75
2023/11/22 05:01:06;;;;;;;7.15;4.05;;;;;;;-1.74;100.00;99423.56;6101548;19;20369;-75
2023/11/22 05:03:06;;;;;;;7.47;4.18;;;;;;;-1.75;100.00;99420.03;6100066;19;20009;-75
2023/11/22 05:05:11;;;;;;;9.23;5.45;;;;;;;-1.78;100.00;99422.50;6101289;19;20003;-75
2023/11/22 05:07:11;;;;;;;7.85;4.70;;;;;;;-1.75;100.00;99439.03;6100993;19;20026;-75
2023/11/22 05:09:13;;;;;;;8.32;4.63;;;;;;;-1.80;100.00;99436.34;6101697;19;20002;-75
2023/11/22 05:11:15;;;;;;;11.15;4.88;;;;;;;-1.78;100.00;99427.91;6098536;19;20003;-75
2023/11/22 05:13:15;;;;;;;9.02;4.47;;;;;;;-1.78;100.00;99444.19;6099676;19;20013;-75
2023/11/22 05:15:16;;;;;;;7.63;4.57;;;;;;;-1.80;100.00;99443.66;6100396;19;20009;-75
2023/11/22 05:17:16;;;;;;;8.20;4.65;;;;;;;-1.78;100.00;99450.44;6098710;19;20011;-75
2023/11/22 05:19:16;;;;;;;8.02;4.32;;;;;;;-1.75;100.00;99449.88;6100896;19;19998;-74
2023/11/22 05:21:17;;;;;;;9.30;4.50;;;;;;;-1.71;100.00;99463.72;6096293;19;20013;-74
2023/11/22 05:23:18;;;;;;;7.97;4.60;;;;;;;-1.73;100.00;99461.28;6092125;19;20019;-75
2023/11/22 05:25:18;;;;;;;9.73;4.07;;;;;;;-1.66;100.00;99462.88;6096845;19;20033;-75
2023/11/22 05:27:18;;;;;;;8.05;4.18;;;;;;;-1.67;100.00;99459.34;6089415;19;20003;-75
2023/11/22 05:29:19;;;;;;;8.00;4.32;;;;;;;-1.62;100.00;99464.78;6098682;19;20039;-75
2023/11/22 05:31:20;;;;;;;8.80;4.75;;;;;;;-1.63;100.00;99471.31;6100824;19;20048;-75
2023/11/22 05:33:21;;;;;;;7.83;4.60;;;;;;;-1.67;100.00;99478.34;6099930;19;20023;-75
2023/11/22 05:35:21;;;;;;;7.30;4.28;;;;;;;-1.67;100.00;99483.78;6100138;19;20767;-75
2023/11/22 05:37:22;;;;;;;8.82;4.60;;;;;;;-1.73;100.00;99477.56;6098168;19;20013;-75
2023/11/22 05:39:22;;;;;;;7.65;4.45;;;;;;;-1.62;100.00;99486.50;6100015;19;20019;-75
2023/11/22 05:41:23;;;;;;;9.25;3.97;;;;;;;-1.56;100.00;99493.56;6099875;19;20019;-75
2023/11/22 05:43:26;;;;;;;8.85;4.32;;;;;;;-1.60;100.00;99488.94;6100143;19;20253;-75
2023/11/22 05:45:26;;;;;;;10.65;4.95;;;;;;;-1.53;100.00;99495.72;6100305;19;21268;-74
2023/11/22 05:47:27;;;;;;;9.38;4.75;;;;;;;-1.63;100.00;99481.34;6098170;19;20010;-75
2023/11/22 05:49:28;;;;;;;7.95;4.40;;;;;;;-1.65;100.00;99491.66;6099546;19;20078;-75
2023/11/22 05:51:28;;;;;;;7.32;4.55;;;;;;;-1.72;100.00;99494.66;6099425;19;20014;-74
2023/11/22 05:53:29;;;;;;;11.63;4.25;;;;;;;-1.84;100.00;99492.19;6098837;19;20006;-75
2023/11/22 05:55:29;;;;;;;7.00;4.10;;;;;;;-1.87;100.00;99494.66;6097552;19;20347;-75
2023/11/22 05:57:30;;;;;;;6.93;4.18;;;;;;;-1.96;100.00;99491.69;6096502;19;20256;-75
2023/11/22 05:59:31;;;;;;;9.30;5.00;;;;;;;-1.98;100.00;99499.28;6099751;19;20477;-75
2023/11/22 06:01:31;;;;;;;8.85;4.70;;;;;;;-1.94;100.00;99489.50;6103634;19;20003;-75
2023/11/22 06:03:32;;;;;;;8.90;4.55;;;;;;;-2.00;100.00;99498.72;6101378;19;20006;-75
2023/11/22 06:05:33;;;;;;;8.80;4.55;;;;;;;-2.02;100.00;99501.69;6104618;19;20003;-75
2023/11/22 06:07:33;;;;;;;8.15;4.18;;;;;;;-2.06;100.00;99497.09;6104738;19;20042;-75
2023/11/22 06:09:34;;;;;;;16.10;4.75;;;;;;;-2.14;100.00;99500.34;6104519;19;20003;-75
2023/11/22 06:11:34;;;;;;;6.45;3.72;;;;;;;-2.14;100.00;99503.06;6104603;19;20347;-74
2023/11/22 06:13:35;;;;;;;11.05;4.30;;;;;;;-2.12;100.00;99514.44;6104897;19;20018;-75
2023/11/22 06:15:35;;;;;;;6.75;4.10;;;;;;;-2.22;100.00;99517.16;6104141;19;20505;-75
2023/11/22 06:17:35;;;;;;;9.43;4.40;;;;;;;-2.24;100.00;99516.59;6103039;19;20433;-74
2023/11/22 06:19:36;;;;;;;8.43;4.30;;;;;;;-2.29;100.00;99537.19;6104698;19;20223;-75
2023/11/22 06:21:38;;;;;;;5.47;3.72;;;;;;;-2.35;100.00;99522.00;6104512;19;20012;-75
2023/11/22 06:23:38;;;;;;;7.30;4.47;;;;;;;-2.35;100.00;99526.59;6104872;19;20428;-75
2023/11/22 06:25:41;;;;;;;8.60;3.95;;;;;;;-2.37;100.00;99526.88;6104603;19;20068;-75
2023/11/22 06:27:42;;;;;;;10.80;4.13;;;;;;;-2.41;100.00;99535.78;6099005;19;20526;-75
2023/11/22 06:29:44;;;;;;;8.88;4.63;;;;;;;-2.47;100.00;99526.84;6095170;19;20350;-75
2023/11/22 06:31:44;;;;;;;9.82;4.75;;;;;;;-2.50;100.00;99540.91;6095751;19;20133;-75
2023/11/22 06:33:45;;;;;;;9.25;5.13;;;;;;;-2.53;100.00;99535.22;6095304;19;20014;-74
2023/11/22 06:35:45;;;;;;;8.82;4.65;;;;;;;-2.58;100.00;99541.44;6094843;19;20315;-75
2023/11/22 06:37:45;;;;;;;11.98;5.25;;;;;;;-2.56;100.00;99556.38;6095607;19;20038;-75
2023/11/22 06:39:46;;;;;;;9.23;4.32;;;;;;;-2.63;100.00;99557.69;6094243;19;20024;-75
2023/11/22 06:41:47;;;;;;;7.45;4.10;;;;;;;-2.67;100.00;99562.00;6092540;19;20251;-74
2023/11/22 06:43:48;;;;;;;8.90;4.80;;;;;;;-2.68;100.00;99560.38;6091832;19;20013;-74
2023/11/22 06:45:48;;;;;;;9.15;5.32;;;;;;;-2.75;100.00;99563.31;6095267;19;20002;-75
2023/11/22 06:47:50;;;;;;;10.93;4.82;;;;;;;-2.74;100.00;99574.97;6095125;19;20007;-75
2023/11/22 06:49:50;;;;;;;8.30;4.97;;;;;;;-2.70;100.00;99576.91;6094480;19;20010;-75
2023/11/22 06:51:51;;;;;;;7.97;4.90;;;;;;;-2.75;100.00;99571.44;6093907;19;20017;-75
2023/11/22 06:53:54;;;;;;;8.73;4.15;;;;;;;-2.70;100.00;99578.78;6089793;19;20015;-75
2023/11/22 06:55:54;;;;;;;8.90;4.65;;;;;;;-2.67;100.00;99579.06;6094844;19;20382;-75
2023/11/22 06:57:55;;;;;;;8.38;4.30;;;;;;;-2.70;100.00;99573.38;6092303;19;20085;-75
2023/11/22 06:59:58;;;;;;;9.02;4.60;;;;;;;-2.66;100.00;99575.28;6095244;19;20573;-75
2023/11/22 07:01:58;;;;;;;8.70;4.63;;;;;;;-2.68;100.00;99577.44;6094165;19;20003;-75
2023/11/22 07:03:59;;;;;;;6.97;4.20;;;;;;;-2.68;100.00;99582.84;6091617;19;20038;-75
2023/11/22 07:05:59;;;;;;;10.88;5.43;;;;;;;-2.68;100.00;99587.47;6095809;19;20371;-75
2023/11/22 07:07:59;;;;;;;9.68;4.50;;;;;;;-2.66;100.00;99609.69;6093984;19;20021;-75
2023/11/22 07:10:00;;;;;;;10.10;5.22;;;;;;;-2.67;100.00;99602.63;6095000;19;20370;-75
2023/11/22 07:12:00;;;;;;;10.95;4.30;;;;;;;-2.62;100.00;99608.91;6092484;19;20009;-75
2023/11/22 07:14:00;;;;;;;13.02;5.78;;;;;;;-2.60;100.00;99619.47;6092512;19;20379;-75
2023/11/22 07:16:01;;;;;;;11.85;5.78;;;;;;;-2.61;100.00;99624.06;6094027;19;20098;-75
2023/11/22 07:18:02;;;;;;;11.55;5.80;;;;;;;-2.57;100.00;99624.34;6093345;19;20010;-75
2023/11/22 07:20:02;;;;;;;19.60;10.95;;;;;;;-2.57;100.00;99617.03;6094298;19;20475;-75
2023/11/22 07:22:04;;;;;;;17.63;10.95;;;;;;;-2.49;100.00;99623.03;6094390;19;20003;-75
2023/11/22 07:24:06;;;;;;;11.17;5.70;;;;;;;-2.45;100.00;99627.66;6094155;19;20385;-75
2023/11/22 07:26:07;;;;;;;9.77;4.60;;;;;;;-2.43;100.00;99624.69;6093099;19;20220;-75
2023/11/22 07:28:07;;;;;;;9.43;4.78;;;;;;;-2.40;100.00;99618.72;6094693;19;20327;-75
2023/11/22 07:30:08;;;;;;;10.90;5.32;;;;;;;-2.40;100.00;99627.72;6103260;19;20097;-75
2023/11/22 07:32:09;;;;;;;9.73;5.10;;;;;;;-2.36;100.00;99631.50;6101394;19;20953;-75
2023/11/22 07:34:11;;;;;;;10.43;5.07;;;;;;;-2.36;100.00;99633.41;6101956;19;19995;-75
2023/11/22 07:36:14;;;;;;;12.57;5.35;;;;;;;-2.37;100.00;99627.16;6102193;19;20009;-75
2023/11/22 07:38:17;;;;;;;9.38;4.78;;;;;;;-2.33;100.00;99625.53;6102161;19;19999;-75
2023/11/22 07:40:19;;;;;;;14.80;5.38;;;;;;;-2.34;100.00;99623.91;6103619;19;19998;-75
2023/11/22 07:42:19;;;;;;;10.65;4.97;;;;;;;-2.31;100.00;99628.00;6103676;19;20031;-75
2023/11/22 07:44:19;;;;;;;7.35;4.70;;;;;;;-2.31;100.00;99619.88;6100542;19;20006;-75
2023/11/22 07:46:20;;;;;;;12.55;5.35;;;;;;;-2.30;100.00;99624.22;6103298;19;20014;-75
2023/11/22 07:48:20;;;;;;;11.52;6.57;;;;;;;-2.32;100.00;99626.34;6101404;19;22047;-75
2023/11/22 07:50:21;;;;;;;12.48;6.05;;;;;;;-2.33;100.00;99625.53;6103097;19;20251;-75
2023/11/22 07:52:27;;;;;;;11.93;5.65;;;;;;;-2.30;100.00;99629.63;6101909;19;20035;-75
2023/11/22 07:54:27;;;;;;;11.43;6.22;;;;;;;-2.33;100.00;99628.25;6103013;19;20327;-75
2023/11/22 07:56:27;;;;;;;13.02;5.70;;;;;;;-2.32;100.00;99627.19;6102531;19;20474;-75
2023/11/22 07:58:28;;;;;;;9.05;5.40;;;;;;;-2.31;100.00;99625.28;6100843;19;20700;-75
2023/11/22 08:00:29;;;;;;;11.20;6.47;;;;;;;-2.26;100.00;99631.53;6102139;19;20014;-75
2023/11/22 08:02:30;;;;;;;11.40;5.90;;;;;;;-2.26;100.00;99626.09;6101942;19;20006;-75
2023/11/22 08:04:32;;;;;;;10.00;6.80;;;;;;;-2.19;100.00;99622.34;6092431;19;20015;-75
2023/11/22 08:06:32;;;;;;;10.52;5.82;;;;;;;-2.13;100.00;99627.53;6101120;19;20003;-75
2023/11/22 08:08:38;;;;;;;12.82;6.57;;;;;;;-2.12;100.00;99623.72;6096794;19;20010;-75
2023/11/22 08:10:38;;;;;;;11.63;6.38;;;;;;;-2.08;100.00;99615.84;6100556;19;20399;-75
2023/11/22 08:12:38;;;;;;;11.77;6.90;;;;;;;-2.07;100.00;99617.47;6100975;19;20010;-75
2023/11/22 08:14:40;;;;;;;10.85;5.68;;;;;;;-2.03;100.00;99608.56;6100434;19;20023;-75
2023/11/22 08:16:42;;;;;;;10.25;5.43;;;;;;;-2.02;100.00;99614.78;6098925;19;20002;-75
2023/11/22 08:18:43;;;;;;;9.55;5.85;;;;;;;-1.98;100.00;99618.63;6101038;19;20007;-75
2023/11/22 08:20:44;;;;;;;10.50;5.78;;;;;;;-1.94;100.00;99622.41;6100428;19;20363;-76
2023/11/22 08:22:45;;;;;;;11.90;6.03;;;;;;;-2.01;100.00;99625.38;6100978;19;20009;-75
2023/11/22 08:24:46;;;;;;;12.52;7.10;;;;;;;-1.98;100.00;99614.00;6102438;19;20006;-75
2023/11/22 08:26:46;;;;;;;9.75;6.88;;;;;;;-2.00;100.00;99608.00;6101781;19;20086;-75
2023/11/22 08:28:46;;;;;;;11.65;6.65;;;;;;;-2.00;100.00;99601.78;6102058;19;20011;-75
2023/11/22 08:30:47;;;;;;;15.93;5.85;;;;;;;-2.05;100.00;99594.47;6100799;19;20014;-75
2023/11/22 08:32:57;;;;;;;12.65;5.97;;;;;;;-2.07;100.00;99593.06;6100695;19;19999;-75
2023/11/22 08:34:58;;;;;;;11.82;7.50;;;;;;;-2.08;100.00;99596.88;6102074;19;20007;-75
2023/11/22 08:36:59;;;;;;;11.27;6.65;;;;;;;-2.09;100.00;99574.38;6100368;19;20020;-75
2023/11/22 08:39:00;;;;;;;11.52;5.63;;;;;;;-2.11;100.00;99589.28;6100772;19;20044;-75
2023/11/22 08:41:11;;;;;;;11.63;6.82;;;;;;;-2.09;100.00;99589.81;6101525;19;20417;-75
2023/11/22 08:43:12;;;;;;;10.60;6.47;;;;;;;-2.08;100.00;99592.25;6101726;19;20058;-75
2023/11/22 08:45:12;;;;;;;11.38;5.65;;;;;;;-2.02;100.00;99582.25;6102850;19;20487;-75
2023/11/22 08:47:13;;;;;;;10.98;5.85;;;;;;;-2.00;100.00;99580.06;6100191;19;20003;-75
2023/11/22 08:49:15;;;;;;;13.75;7.40;;;;;;;-1.96;100.00;99586.59;6102194;19;20006;-76
2023/11/22 08:51:15;;;;;;;11.50;6.35;;;;;;;-1.98;100.00;99586.06;6101211;19;20007;-75
2023/11/22 08:53:17;;;;;;;14.38;7.13;;;;;;;-1.98;100.00;99595.03;6101817;19;20057;-75
2023/11/22 08:55:21;;;;;;;14.60;6.93;;;;;;;-1.95;100.00;99598.28;6101460;19;20459;-75
2023/11/22 08:57:22;;;;;;;11.07;6.88;;;;;;;-1.93;100.00;99596.09;6098849;19;20006;-75
2023/11/22 08:59:22;;;;;;;13.07;7.03;;;;;;;-1.92;100.00;99603.97;6100659;19;20228;-75
2023/11/22 09:01:23;;;;;;;12.45;7.20;;;;;;;-1.92;100.00;99598.53;6102158;19;20316;-74
2023/11/22 09:03:24;;;;;;;9.68;5.95;;;;;;;-1.92;100.00;99603.16;6101092;19;20018;-75
2023/11/22 09:05:24;;;;;;;12.32;6.25;;;;;;;-1.85;100.00;99607.22;6101919;19;20693;-75
2023/11/22 09:07:25;;;;;;;15.10;8.75;;;;;;;-1.79;100.00;99618.91;6099712;19;20133;-75
2023/11/22 09:09:30;;;;;;;12.50;8.00;;;;;;;-1.74;100.00;99616.19;6101437;19;20597;-75
2023/11/22 09:11:33;;;;;;;12.93;6.00;;;;;;;-1.68;100.00;99617.03;6101718;19;20389;-75
2023/11/22 09:13:34;;;;;;;;;;;;;;;-1.61;100.00;99633.84;6101409;19;20002;-75
2023/11/22 09:15:35;;;;;;;14.48;7.63;;;;;;;-1.61;100.00;99615.66;6101127;19;19911;-75
2023/11/22 09:17:38;;;;;;;14.20;6.70;;;;;;;-1.59;100.00;99621.63;6100267;19;20377;-75
2023/11/22 09:19:39;;;;;;;11.07;6.20;;;;;;;-1.52;100.00;99635.75;6101403;19;20010;-75
2023/11/22 09:21:39;;;;;;;13.60;6.80;;;;;;;-1.47;100.00;99634.97;6101261;19;20035;-75